KPIE/PIE METAR and TAF weather

Enter ICAO airport designator
Station Type Date Time Source
KPIE METAR 2019/10/18 10:53 UTC NOAA

KPIE 181053Z 08005KT 10SM SCT042 23/16 A2991 RMK AO2 SLP128 T02330156


Station Type Date Time Source
KPIE Decoded METAR 2019/10/18 10:53 UTC NOAA

ST PETERSBURG/CLEARWATER, FL, United States (KPIE) 27-55N 82-41W 4M
Oct 18, 2019 - 06:53 AM EDT / 2019.10.18 1053 UTC
Wind: from the E (080 degrees) at 6 MPH (5 KT):0
Visibility: 10 mile(s):0
Sky conditions: partly cloudy
Temperature: 73.9 F (23.3 C)
Dew Point: 60.1 F (15.6 C)
Relative Humidity: 61%
Pressure (altimeter): 29.91 in. Hg (1012 hPa)
ob: KPIE 181053Z 08005KT 10SM SCT042 23/16 A2991 RMK AO2 SLP128 T02330156
cycle: 11

Station Type Date Time Source
KPIE TAF 2019/10/18 06:22 UTC NOAA

TAF KPIE 180520Z 1806/1906 03005KT P6SM SCT050 SCT100 BKN200
FM181500 08007KT P6SM VCSH SCT035 BKN100 OVC200
FM182000 12014G24KT 6SM SHRA VCTS SCT015CB BKN035 OVC050
FM190200 14018G28KT 5SM -RA VCTS BKN015CB OVC025

Example: see airport list